Time;durP1;ratioP1;P1;durP2;ratioP2;P2;SDS_P1;SDS_P2;PMS_P1;PMS_P2;Temp;Humidity;BMP_temperature;BMP_pressure;BME280_temperature;BME280_humidity;BME280_pressure;Samples;Min_cycle;Max_cycle;Signal;HPM_P1;HPM_P2
2023/07/02 00:00:28;;;;;;;18.10;5.80;;;;;;;18.47;74.68;99151.30;107873;1277;22614;-82
2023/07/02 00:03:21;;;;;;;15.80;5.30;;;;;;;18.42;74.91;99155.59;108532;1276;22476;-82
2023/07/02 00:05:56;;;;;;;20.70;5.60;;;;;;;18.41;74.98;99146.23;108444;1277;22569;-83
2023/07/02 00:08:27;;;;;;;16.10;5.40;;;;;;;18.39;75.15;99151.83;107948;1281;23143;-83
2023/07/02 00:10:58;;;;;;;20.60;5.50;;;;;;;18.36;75.17;99155.70;107972;1277;22557;-83
2023/07/02 00:13:29;;;;;;;17.40;6.00;;;;;;;18.36;75.34;99157.92;108010;1276;22571;-82
2023/07/02 00:15:59;;;;;;;18.60;6.10;;;;;;;18.33;75.31;99160.59;107920;1281;22539;-83
2023/07/02 00:18:33;;;;;;;16.70;5.20;;;;;;;18.30;75.57;99163.03;107946;1281;23433;-82
2023/07/02 00:21:13;;;;;;;13.90;5.30;;;;;;;18.29;75.77;99161.73;107974;1279;23289;-83
2023/07/02 00:23:44;;;;;;;20.10;5.40;;;;;;;18.28;75.76;99164.79;107950;1281;22547;-82
2023/07/02 00:26:15;;;;;;;16.60;5.40;;;;;;;18.26;75.87;99165.00;107943;1281;22563;-83
2023/07/02 00:28:46;;;;;;;18.30;5.40;;;;;;;18.23;76.07;99166.27;108070;1278;25636;-82
2023/07/02 00:31:17;;;;;;;13.30;4.60;;;;;;;18.20;76.25;99164.40;108010;1280;22654;-83
2023/07/02 00:33:48;;;;;;;21.80;5.50;;;;;;;18.17;76.17;99162.59;108021;1277;22527;-83
2023/07/02 00:36:19;;;;;;;19.30;5.40;;;;;;;18.15;76.15;99164.66;107961;1276;25438;-82
2023/07/02 00:38:51;;;;;;;17.90;4.70;;;;;;;18.13;75.95;99165.95;107939;1277;22528;-83
2023/07/02 00:41:22;;;;;;;14.20;3.30;;;;;;;18.12;75.68;99170.91;108113;1277;22540;-83
2023/07/02 00:43:54;;;;;;;13.70;3.90;;;;;;;18.11;75.51;99166.61;108021;1275;24203;-83
2023/07/02 00:46:26;;;;;;;11.60;3.60;;;;;;;18.11;75.37;99167.48;108033;1279;23083;-82
2023/07/02 00:48:59;;;;;;;14.20;4.50;;;;;;;18.12;75.40;99162.48;108045;1281;22598;-82
2023/07/02 00:51:33;;;;;;;13.00;3.30;;;;;;;18.14;75.27;99161.66;108069;1276;23914;-82
2023/07/02 00:54:04;;;;;;;13.00;3.00;;;;;;;18.16;75.18;99162.69;108029;1277;22551;-83
2023/07/02 00:56:35;;;;;;;10.30;3.20;;;;;;;18.17;75.09;99165.06;108081;1281;24218;-83
2023/07/02 00:59:06;;;;;;;10.80;2.30;;;;;;;18.19;74.90;99162.73;108082;1278;22535;-83
2023/07/02 01:01:38;;;;;;;9.70;2.10;;;;;;;18.23;74.63;99164.11;107978;1279;24062;-82
2023/07/02 01:04:12;;;;;;;8.70;2.00;;;;;;;18.28;74.62;99160.82;107863;1275;22508;-82
2023/07/02 01:06:43;;;;;;;12.40;1.30;;;;;;;18.33;74.47;99160.27;107984;1278;22554;-82
2023/07/02 01:09:14;;;;;;;10.60;1.70;;;;;;;18.37;74.31;99159.20;107893;1276;22520;-83
2023/07/02 01:11:50;;;;;;;9.60;1.30;;;;;;;18.43;74.20;99157.63;107888;1281;23391;-82
2023/07/02 01:14:35;;;;;;;6.00;1.40;;;;;;;18.50;74.15;99153.68;107948;1280;22560;-82
2023/07/02 01:17:08;;;;;;;6.50;1.30;;;;;;;18.55;74.09;99151.16;107988;1275;22949;-82
2023/07/02 01:19:45;;;;;;;5.80;1.20;;;;;;;18.58;74.05;99157.81;107898;1281;22487;-83
2023/07/02 01:22:16;;;;;;;6.50;1.20;;;;;;;18.62;73.79;99160.56;107994;1277;22548;-82
2023/07/02 01:24:48;;;;;;;10.20;1.20;;;;;;;18.67;73.66;99158.81;108044;1277;25354;-83
2023/07/02 01:27:20;;;;;;;4.80;0.80;;;;;;;18.71;73.70;99157.08;108149;1277;22565;-82
2023/07/02 01:29:53;;;;;;;3.50;0.80;;;;;;;18.74;73.53;99154.23;108080;1277;22472;-82
2023/07/02 01:32:24;;;;;;;4.40;1.00;;;;;;;18.77;73.58;99156.91;107978;1281;22500;-82
2023/07/02 01:34:55;;;;;;;4.10;1.00;;;;;;;18.79;73.57;99156.56;108018;1277;22569;-82
2023/07/02 01:37:26;;;;;;;4.70;0.90;;;;;;;18.80;73.54;99152.45;107916;1273;23896;-82
2023/07/02 01:39:56;;;;;;;4.10;0.80;;;;;;;18.81;73.62;99153.84;107976;1276;22675;-82
2023/07/02 01:42:27;;;;;;;4.00;0.80;;;;;;;18.83;73.55;99151.13;107997;1270;22527;-82
2023/07/02 01:44:58;;;;;;;3.90;0.70;;;;;;;18.84;73.57;99151.40;108083;1280;22545;-83
2023/07/02 01:47:30;;;;;;;6.00;0.70;;;;;;;18.84;73.56;99149.89;108116;1281;22500;-82
2023/07/02 01:50:01;;;;;;;4.50;1.00;;;;;;;18.85;73.56;99149.66;108059;1281;25361;-82
2023/07/02 01:52:33;;;;;;;4.90;0.60;;;;;;;18.85;73.60;99150.94;107984;1276;25929;-82
2023/07/02 01:55:04;;;;;;;2.60;0.70;;;;;;;18.85;73.69;99153.24;107964;1277;22578;-82
2023/07/02 01:57:36;;;;;;;3.30;0.60;;;;;;;18.85;73.69;99151.36;107919;1277;24314;-82
2023/07/02 02:00:10;;;;;;;4.40;0.80;;;;;;;18.84;73.80;99155.40;108008;1279;22566;-83
2023/07/02 02:02:41;;;;;;;4.00;0.50;;;;;;;18.83;73.82;99155.16;107907;1281;22681;-82
2023/07/02 02:05:12;;;;;;;5.70;0.70;;;;;;;18.82;73.93;99154.45;107959;1281;22541;-82
2023/07/02 02:07:43;;;;;;;4.30;0.70;;;;;;;18.80;73.99;99155.27;108027;1276;22529;-83
2023/07/02 02:10:14;;;;;;;2.60;0.60;;;;;;;18.79;74.06;99164.05;107978;1281;25431;-82
2023/07/02 02:12:45;;;;;;;4.50;0.70;;;;;;;18.77;74.10;99166.84;108031;1281;22503;-82
2023/07/02 02:15:16;;;;;;;8.60;1.00;;;;;;;18.76;74.01;99165.20;108032;1275;22546;-82
2023/07/02 02:17:47;;;;;;;6.00;0.70;;;;;;;18.76;74.03;99172.00;107884;1281;22641;-82
2023/07/02 02:20:18;;;;;;;2.90;0.50;;;;;;;18.75;74.14;99172.44;107911;1281;22517;-83
2023/07/02 02:22:49;;;;;;;6.70;0.90;;;;;;;18.74;74.27;99171.40;108031;1275;22546;-83
2023/07/02 02:25:20;;;;;;;3.00;0.70;;;;;;;18.74;74.36;99170.67;108086;1281;23869;-82
2023/07/02 02:27:51;;;;;;;2.50;0.60;;;;;;;18.74;74.42;99173.57;108094;1277;25423;-82
2023/07/02 02:30:22;;;;;;;3.20;0.70;;;;;;;18.73;74.55;99174.24;107966;1275;22532;-82
2023/07/02 02:32:53;;;;;;;4.80;0.60;;;;;;;18.73;74.62;99179.55;108032;1281;22538;-84
2023/07/02 02:35:23;;;;;;;2.40;0.50;;;;;;;18.72;74.83;99183.44;108001;1275;25320;-83
2023/07/02 02:37:54;;;;;;;3.40;0.50;;;;;;;18.70;75.08;99179.33;107939;1274;22536;-82
2023/07/02 02:40:25;;;;;;;2.90;0.50;;;;;;;18.69;75.20;99182.20;108075;1281;23658;-82
2023/07/02 02:42:56;;;;;;;1.90;0.40;;;;;;;18.67;75.48;99189.65;108055;1279;22519;-83
2023/07/02 02:45:26;;;;;;;3.00;0.40;;;;;;;18.65;75.94;99189.45;107983;1281;25405;-83
2023/07/02 02:47:57;;;;;;;6.70;0.60;;;;;;;18.63;76.25;99186.66;107938;1281;22560;-82
2023/07/02 02:50:28;;;;;;;3.10;0.50;;;;;;;18.59;76.63;99192.00;107946;1278;25249;-82
2023/07/02 02:52:59;;;;;;;2.50;0.50;;;;;;;18.56;76.83;99192.86;107859;1278;22499;-82
2023/07/02 02:55:30;;;;;;;3.10;0.30;;;;;;;18.53;77.12;99193.83;107948;1278;22720;-82
2023/07/02 02:58:00;;;;;;;1.00;0.30;;;;;;;18.50;77.22;99197.66;108059;1275;23246;-82
2023/07/02 03:00:31;;;;;;;3.10;0.40;;;;;;;18.47;77.49;99197.54;108058;1275;22539;-82
2023/07/02 03:03:02;;;;;;;2.00;0.30;;;;;;;18.46;77.50;99197.22;107969;1281;22583;-82
2023/07/02 03:05:33;;;;;;;4.20;0.60;;;;;;;18.45;77.63;99195.55;108012;1281;22479;-82
2023/07/02 03:08:04;;;;;;;2.10;0.40;;;;;;;18.44;77.80;99197.73;108002;1274;23791;-82
2023/07/02 03:10:35;;;;;;;1.10;0.40;;;;;;;18.44;77.89;99201.95;107993;1279;24571;-82
2023/07/02 03:13:05;;;;;;;3.90;0.30;;;;;;;18.43;78.22;99194.84;107965;1281;22590;-83
2023/07/02 03:15:36;;;;;;;1.70;0.20;;;;;;;18.42;78.31;99198.09;107989;1279;25299;-82
2023/07/02 03:18:07;;;;;;;6.50;0.50;;;;;;;18.41;78.50;99195.48;107769;1275;23602;-83
2023/07/02 03:20:38;;;;;;;2.20;0.40;;;;;;;18.40;78.61;99192.42;107882;1281;26305;-82
2023/07/02 03:23:08;;;;;;;1.10;0.40;;;;;;;18.40;78.79;99192.27;108094;1281;25397;-82
2023/07/02 03:25:39;;;;;;;1.40;0.30;;;;;;;18.40;78.98;99193.55;108029;1275;23199;-79
2023/07/02 03:28:10;;;;;;;1.90;0.20;;;;;;;18.40;79.04;99192.57;107967;1278;22490;-83
2023/07/02 03:30:41;;;;;;;2.30;0.40;;;;;;;18.41;79.10;99197.74;107908;1281;23298;-83
2023/07/02 03:33:12;;;;;;;1.20;0.10;;;;;;;18.42;79.35;99194.17;107900;1275;22636;-83
2023/07/02 03:35:43;;;;;;;0.60;0.20;;;;;;;18.44;79.47;99199.54;108083;1275;22573;-83
2023/07/02 03:38:14;;;;;;;1.90;0.30;;;;;;;18.44;79.35;99196.58;108378;1276;22475;-83
2023/07/02 03:40:47;;;;;;;3.20;0.20;;;;;;;18.45;79.46;99196.80;108197;1281;22562;-82
2023/07/02 03:43:17;;;;;;;3.90;0.40;;;;;;;18.46;79.52;99196.09;108088;1275;22510;-83
2023/07/02 03:45:48;;;;;;;1.30;0.30;;;;;;;18.47;79.58;99196.20;108067;1278;23436;-82
2023/07/02 03:48:19;;;;;;;2.00;0.50;;;;;;;18.49;79.76;99202.06;107949;1276;22514;-82
2023/07/02 03:50:50;;;;;;;1.10;0.20;;;;;;;18.50;79.77;99203.67;108043;1281;23223;-82
2023/07/02 03:53:20;;;;;;;0.60;0.20;;;;;;;18.51;79.83;99211.45;107951;1278;23300;-83
2023/07/02 03:55:51;;;;;;;1.90;0.20;;;;;;;18.53;79.97;99210.52;108033;1275;22566;-82
2023/07/02 03:58:22;;;;;;;2.00;0.50;;;;;;;18.55;80.06;99211.81;107995;1275;22508;-83
2023/07/02 04:00:52;;;;;;;0.70;0.20;;;;;;;18.57;80.01;99213.73;108155;1281;23259;-83
2023/07/02 04:03:23;;;;;;;2.80;0.20;;;;;;;18.60;80.02;99211.41;108041;1275;23663;-83
2023/07/02 04:05:54;;;;;;;1.50;0.30;;;;;;;18.62;80.05;99214.96;108052;1275;24235;-83
2023/07/02 04:08:25;;;;;;;2.40;0.40;;;;;;;18.62;80.09;99218.73;108001;1276;22530;-82
2023/07/02 04:10:56;;;;;;;4.70;0.60;;;;;;;18.63;80.13;99214.02;108086;1275;22524;-83
2023/07/02 04:13:27;;;;;;;1.90;0.40;;;;;;;18.63;80.28;99218.40;107798;1275;22510;-83
2023/07/02 04:15:58;;;;;;;1.70;0.30;;;;;;;18.63;80.26;99220.20;107677;1275;25432;-83
2023/07/02 04:18:29;;;;;;;1.50;0.30;;;;;;;18.63;80.38;99220.02;107833;1275;22664;-83
2023/07/02 04:21:01;;;;;;;1.60;0.40;;;;;;;18.63;80.39;99226.01;107908;1275;22554;-83
2023/07/02 04:23:32;;;;;;;1.40;0.50;;;;;;;18.64;80.37;99222.02;107917;1275;22534;-83
2023/07/02 04:26:03;;;;;;;5.90;0.50;;;;;;;18.65;80.39;99224.46;108061;1275;24264;-83
2023/07/02 04:28:34;;;;;;;1.70;0.30;;;;;;;18.65;80.41;99226.77;107999;1281;22562;-84
2023/07/02 04:31:04;;;;;;;3.20;0.50;;;;;;;18.65;80.29;99229.33;107978;1275;22527;-83
2023/07/02 04:33:36;;;;;;;1.50;0.40;;;;;;;18.67;80.37;99231.86;108006;1271;23915;-83
2023/07/02 04:36:07;;;;;;;2.20;0.40;;;;;;;18.70;80.40;99234.98;107910;1276;23853;-83
2023/07/02 04:38:39;;;;;;;1.40;0.50;;;;;;;18.71;80.32;99234.26;107973;1281;22499;-83
2023/07/02 04:41:10;;;;;;;2.40;0.40;;;;;;;18.72;80.33;99240.71;108016;1281;22822;-84
2023/07/02 04:43:40;;;;;;;1.80;0.40;;;;;;;18.73;80.22;99243.54;108021;1279;22517;-83
2023/07/02 04:46:12;;;;;;;3.40;0.50;;;;;;;18.75;80.27;99246.07;107966;1280;22659;-83
2023/07/02 04:48:42;;;;;;;3.20;0.50;;;;;;;18.75;80.14;99252.48;107966;1281;22589;-83
2023/07/02 04:51:13;;;;;;;2.40;0.40;;;;;;;18.77;80.13;99249.81;107789;1268;22517;-83
2023/07/02 04:53:44;;;;;;;1.60;0.50;;;;;;;18.79;80.13;99251.89;107931;1268;25352;-83
2023/07/02 04:56:15;;;;;;;3.70;0.60;;;;;;;18.82;80.04;99247.34;107932;1275;22759;-83
2023/07/02 04:58:46;;;;;;;2.00;0.60;;;;;;;18.85;80.05;99253.20;107938;1278;22519;-83
2023/07/02 05:01:17;;;;;;;1.70;0.50;;;;;;;18.89;80.27;99252.42;108019;1275;22509;-83
2023/07/02 05:03:47;;;;;;;1.80;0.50;;;;;;;18.93;80.20;99253.52;108015;1275;22648;-83
2023/07/02 05:06:18;;;;;;;2.60;0.60;;;;;;;18.95;80.17;99254.19;107869;1275;26801;-83
2023/07/02 05:08:49;;;;;;;1.80;0.50;;;;;;;18.98;80.22;99252.46;107974;1275;22585;-82
2023/07/02 05:11:19;;;;;;;4.40;0.80;;;;;;;19.00;80.11;99249.40;107941;1275;22671;-83
2023/07/02 05:14:00;;;;;;;3.70;0.70;;;;;;;19.02;80.08;99254.54;108054;1275;26009;-83
2023/07/02 05:16:31;;;;;;;3.90;0.70;;;;;;;19.03;79.97;99252.86;107932;1266;23589;-83
2023/07/02 05:19:02;;;;;;;2.90;0.70;;;;;;;19.06;80.18;99258.51;107970;1275;25292;-83
2023/07/02 05:21:32;;;;;;;1.70;0.50;;;;;;;19.11;80.23;99260.21;107970;1281;22492;-83
2023/07/02 05:24:04;;;;;;;5.40;0.50;;;;;;;19.17;80.03;99260.20;107879;1281;22530;-83
2023/07/02 05:26:35;;;;;;;3.20;0.70;;;;;;;19.20;80.13;99260.66;103786;1281;5411587;-83
2023/07/02 05:29:06;;;;;;;4.00;0.70;;;;;;;19.23;79.90;99260.98;108059;1276;24258;-83
2023/07/02 05:31:37;;;;;;;3.70;0.50;;;;;;;19.25;79.75;99268.27;108113;1271;24287;-83
2023/07/02 05:34:07;;;;;;;4.90;0.60;;;;;;;19.27;79.73;99265.21;107924;1281;24073;-83
2023/07/02 05:36:38;;;;;;;7.80;0.70;;;;;;;19.29;79.69;99270.50;107849;1281;22667;-83
2023/07/02 05:39:09;;;;;;;2.50;0.70;;;;;;;19.30;79.92;99274.53;108006;1270;22702;-83
2023/07/02 05:41:40;;;;;;;3.30;0.60;;;;;;;19.31;80.29;99274.60;107972;1271;25236;-83
2023/07/02 05:44:10;;;;;;;2.30;0.60;;;;;;;19.30;80.71;99275.63;108053;1278;22593;-84
2023/07/02 05:46:41;;;;;;;3.80;0.70;;;;;;;19.26;80.77;99279.05;108003;1275;22606;-85
2023/07/02 05:49:12;;;;;;;3.30;0.60;;;;;;;19.23;80.76;99282.59;108018;1275;24200;-83
2023/07/02 05:51:43;;;;;;;2.60;0.60;;;;;;;19.18;80.79;99284.73;107890;1275;25431;-83
2023/07/02 05:54:14;;;;;;;2.90;0.70;;;;;;;19.18;80.83;99283.45;107932;1275;22930;-83
2023/07/02 05:56:45;;;;;;;2.20;0.60;;;;;;;19.19;80.93;99286.31;108115;1280;25275;-83
2023/07/02 05:59:17;;;;;;;4.50;0.80;;;;;;;19.22;81.09;99285.46;108022;1277;22755;-83
2023/07/02 06:01:48;;;;;;;2.50;0.60;;;;;;;19.25;80.82;99285.32;107953;1278;22558;-83
2023/07/02 06:04:19;;;;;;;6.20;0.80;;;;;;;19.29;80.86;99285.70;107874;1280;22808;-83
2023/07/02 06:06:50;;;;;;;1.70;0.50;;;;;;;19.32;80.75;99285.08;108031;1275;24202;-83
2023/07/02 06:09:20;;;;;;;2.80;0.60;;;;;;;19.36;80.64;99281.48;108052;1275;22677;-83
2023/07/02 06:11:51;;;;;;;5.30;0.80;;;;;;;19.41;80.64;99280.81;108076;1281;22531;-83
2023/07/02 06:14:25;;;;;;;4.00;0.50;;;;;;;19.48;80.62;99287.23;107945;1280;22549;-83
2023/07/02 06:16:57;;;;;;;2.90;0.60;;;;;;;19.52;80.37;99289.40;107913;1275;24292;-83
2023/07/02 06:19:27;;;;;;;2.20;0.60;;;;;;;19.58;80.44;99289.55;108004;1278;22538;-83
2023/07/02 06:21:58;;;;;;;4.30;0.80;;;;;;;19.64;80.40;99293.52;107926;1275;23405;-83
2023/07/02 06:24:29;;;;;;;1.80;0.50;;;;;;;19.68;79.73;99297.38;108045;1275;24222;-83
2023/07/02 06:27:01;;;;;;;2.80;0.60;;;;;;;19.68;79.57;99295.67;108064;1281;25303;-83
2023/07/02 06:29:32;;;;;;;2.70;0.70;;;;;;;19.68;79.48;99296.23;108004;1281;22487;-83
2023/07/02 06:32:03;;;;;;;3.10;0.70;;;;;;;19.68;79.37;99292.29;108028;1281;25406;-83
2023/07/02 06:34:33;;;;;;;3.00;0.50;;;;;;;19.67;79.38;99294.44;108022;1278;22582;-83
2023/07/02 06:37:05;;;;;;;2.90;0.70;;;;;;;19.64;79.29;99297.04;107995;1275;22574;-83
2023/07/02 06:39:36;;;;;;;2.90;0.70;;;;;;;19.63;79.26;99300.48;107988;1275;22548;-83
2023/07/02 06:42:09;;;;;;;2.00;0.70;;;;;;;19.61;79.33;99302.73;107955;1277;22629;-83
2023/07/02 06:44:39;;;;;;;2.60;0.50;;;;;;;19.57;79.23;99307.55;109979;1281;22162;-83
2023/07/02 06:47:10;;;;;;;5.60;0.80;;;;;;;19.53;79.05;99309.29;110003;1281;22165;-84
2023/07/02 06:49:41;;;;;;;3.60;0.70;;;;;;;19.50;79.18;99304.72;109969;1275;22184;-84
2023/07/02 06:52:12;;;;;;;2.20;0.60;;;;;;;19.47;79.24;99303.88;109999;1275;22182;-84
2023/07/02 06:54:42;;;;;;;2.00;0.50;;;;;;;19.46;79.37;99303.34;109984;1274;22169;-84
2023/07/02 06:57:14;;;;;;;2.80;0.60;;;;;;;19.46;79.47;99303.20;110013;1275;22355;-84
2023/07/02 06:59:45;;;;;;;4.00;0.60;;;;;;;19.44;79.70;99311.42;108065;1281;23361;-83
2023/07/02 07:02:16;;;;;;;2.50;0.70;;;;;;;19.40;80.64;99318.54;108037;1275;22588;-83
2023/07/02 07:04:47;;;;;;;2.10;0.70;;;;;;;19.26;81.50;99332.18;107992;1275;22521;-79
2023/07/02 07:07:18;;;;;;;3.90;0.60;;;;;;;19.00;81.46;99332.86;108027;1278;23721;-80
2023/07/02 07:09:49;;;;;;;3.90;0.50;;;;;;;18.71;81.88;99334.95;108072;1274;22547;-81
2023/07/02 07:12:20;;;;;;;2.20;0.50;;;;;;;18.51;82.09;99334.64;108664;1275;22580;-81
2023/07/02 07:14:51;;;;;;;2.20;0.50;;;;;;;18.42;82.72;99334.42;108156;1270;22587;-81
2023/07/02 07:17:22;;;;;;;5.80;0.60;;;;;;;18.37;83.13;99337.30;107899;1275;22562;-80
2023/07/02 07:19:53;;;;;;;2.00;0.60;;;;;;;18.29;83.35;99336.84;108023;1266;23285;-81
2023/07/02 07:22:23;;;;;;;2.60;0.50;;;;;;;18.24;84.02;99332.46;108005;1278;22883;-81
2023/07/02 07:24:54;;;;;;;4.80;0.80;;;;;;;18.22;84.65;99335.23;107919;1275;22536;-81
2023/07/02 07:27:25;;;;;;;3.70;0.70;;;;;;;18.21;85.49;99336.42;107784;1275;22579;-81
2023/07/02 07:29:56;;;;;;;2.50;0.70;;;;;;;18.24;86.13;99335.86;107855;1280;23396;-81
2023/07/02 07:32:27;;;;;;;4.90;1.10;;;;;;;18.27;86.53;99331.70;107803;1275;22544;-82
2023/07/02 07:34:57;;;;;;;3.30;0.80;;;;;;;18.34;87.17;99325.11;107742;1275;22549;-82
2023/07/02 07:37:28;;;;;;;2.70;0.80;;;;;;;18.39;87.42;99331.48;107965;1278;22527;-81
2023/07/02 07:39:59;;;;;;;2.90;0.80;;;;;;;18.45;87.89;99331.77;107989;1279;22567;-81
2023/07/02 07:42:29;;;;;;;4.50;1.00;;;;;;;18.51;88.01;99337.66;108053;1274;22570;-79
2023/07/02 07:45:00;;;;;;;4.50;1.00;;;;;;;18.60;88.33;99338.65;107880;1281;22543;-80
2023/07/02 07:47:31;;;;;;;12.10;4.50;;;;;;;18.70;88.84;99336.90;107953;1275;24261;-79
2023/07/02 07:50:02;;;;;;;24.60;9.70;;;;;;;18.79;89.09;99338.47;108027;1270;22598;-79
2023/07/02 07:52:33;;;;;;;10.90;2.20;;;;;;;18.90;88.85;99340.94;107842;1268;23277;-79
2023/07/02 07:55:03;;;;;;;8.00;2.20;;;;;;;19.02;89.12;99335.44;107810;1278;22553;-78
2023/07/02 07:57:35;;;;;;;6.20;1.70;;;;;;;19.20;89.54;99340.19;107937;1278;24461;-77
2023/07/02 08:00:09;;;;;;;7.30;1.50;;;;;;;19.36;89.15;99340.80;107585;1282;22546;-78
2023/07/02 08:02:39;;;;;;;8.80;1.50;;;;;;;19.47;88.53;99339.29;107600;1281;23256;-78
2023/07/02 08:05:11;;;;;;;2.90;0.70;;;;;;;19.56;88.03;99335.46;107755;1275;22493;-78
2023/07/02 08:07:42;;;;;;;6.90;1.40;;;;;;;19.65;87.17;99339.55;107694;1275;22923;-77
2023/07/02 08:10:13;;;;;;;7.20;1.10;;;;;;;19.74;88.13;99341.19;107765;1268;22529;-77
2023/07/02 08:12:43;;;;;;;14.70;2.90;;;;;;;19.85;87.46;99345.80;107602;1281;22491;-77
2023/07/02 08:15:14;;;;;;;5.80;1.10;;;;;;;19.91;86.94;99347.79;107443;1275;23952;-77
2023/07/02 08:17:45;;;;;;;12.80;1.90;;;;;;;19.97;86.21;99351.15;107551;1275;23335;-80
2023/07/02 08:20:17;;;;;;;5.60;1.20;;;;;;;19.96;84.84;99355.76;108162;1275;23170;-80
2023/07/02 08:22:47;;;;;;;3.90;0.80;;;;;;;19.92;84.80;99353.49;108390;1267;22913;-81
2023/07/02 08:25:19;;;;;;;3.20;0.90;;;;;;;19.86;84.22;99354.27;108157;1275;22521;-81
2023/07/02 08:27:51;;;;;;;3.30;1.00;;;;;;;19.80;83.80;99355.81;108136;1275;22521;-81
2023/07/02 08:30:21;;;;;;;3.80;1.10;;;;;;;19.76;83.82;99358.60;108075;1275;24138;-81
2023/07/02 08:32:54;;;;;;;3.40;0.90;;;;;;;19.74;83.68;99358.55;108041;1275;24301;-80
2023/07/02 08:35:24;;;;;;;3.30;0.80;;;;;;;19.74;84.09;99360.60;108352;1275;22559;-81
2023/07/02 08:37:56;;;;;;;2.00;0.80;;;;;;;19.79;84.02;99360.30;108157;1282;22548;-80
2023/07/02 08:40:28;;;;;;;5.00;0.90;;;;;;;19.88;84.29;99357.33;108112;1275;22601;-81
2023/07/02 08:43:01;;;;;;;3.10;0.80;;;;;;;19.95;83.55;99355.53;108080;1266;22562;-81
2023/07/02 08:45:32;;;;;;;2.90;1.00;;;;;;;20.02;83.19;99362.97;108063;1275;23858;-81
2023/07/02 08:48:03;;;;;;;5.00;0.70;;;;;;;20.09;82.69;99365.20;108101;1280;22476;-81
2023/07/02 08:50:34;;;;;;;2.80;0.60;;;;;;;20.13;81.62;99373.02;108060;1283;22553;-81
2023/07/02 08:53:04;;;;;;;2.60;0.70;;;;;;;20.10;81.01;99370.62;108184;1271;22537;-82
2023/07/02 08:55:35;;;;;;;2.40;0.60;;;;;;;20.09;81.29;99376.84;108218;1283;25324;-81
2023/07/02 08:58:06;;;;;;;4.20;0.90;;;;;;;20.07;80.30;99382.02;108117;1280;22543;-82
2023/07/02 09:00:37;;;;;;;2.70;0.80;;;;;;;19.99;79.46;99386.65;108135;1278;23340;-82
2023/07/02 09:03:19;;;;;;;2.80;0.70;;;;;;;19.90;79.75;99394.57;108099;1275;22550;-82
2023/07/02 09:05:54;;;;;;;2.70;0.80;;;;;;;19.82;80.33;99396.48;108230;1275;27517;-82
2023/07/02 09:08:28;;;;;;;3.50;0.60;;;;;;;19.76;80.64;99394.69;108194;1280;22619;-82
2023/07/02 09:11:10;;;;;;;2.90;0.80;;;;;;;19.71;80.14;99388.20;108194;1283;22527;-82
2023/07/02 09:13:52;;;;;;;4.00;0.90;;;;;;;19.69;80.29;99378.18;109805;1280;22309;-82
2023/07/02 09:16:27;;;;;;;3.40;0.80;;;;;;;19.67;80.42;99374.92;109795;1278;22912;-82
2023/07/02 09:19:03;;;;;;;3.70;0.60;;;;;;;19.65;79.96;99374.81;109813;1275;22307;-82
2023/07/02 09:21:45;;;;;;;3.90;0.80;;;;;;;19.60;79.68;99375.73;109749;1275;22342;-82
2023/07/02 09:24:19;;;;;;;3.00;0.70;;;;;;;19.56;79.68;99386.46;109699;1276;22355;-82
2023/07/02 09:26:53;;;;;;;2.20;0.80;;;;;;;19.53;79.84;99389.55;109761;1281;22402;-82
2023/07/02 09:29:28;;;;;;;5.00;0.90;;;;;;;19.53;80.18;99392.11;109803;1280;22232;-82
2023/07/02 09:32:00;;;;;;;6.00;0.70;;;;;;;19.52;79.86;99387.45;109838;1280;22606;-81
2023/07/02 09:34:32;;;;;;;6.00;0.90;;;;;;;19.52;79.68;99374.28;109849;1273;22162;-83
2023/07/02 09:37:05;;;;;;;2.90;0.70;;;;;;;19.52;79.56;99392.00;109877;1283;22163;-82
2023/07/02 09:39:39;;;;;;;1.70;0.50;;;;;;;19.56;79.59;99385.40;109877;1283;22088;-84
2023/07/02 09:42:10;;;;;;;2.00;0.60;;;;;;;19.60;79.68;99388.04;109907;1275;22338;-83
2023/07/02 09:44:42;;;;;;;2.00;0.70;;;;;;;19.61;79.34;99397.76;109948;1274;23189;-82
2023/07/02 09:47:17;;;;;;;2.90;0.70;;;;;;;19.60;79.21;99405.64;109942;1281;22199;-83
2023/07/02 09:49:54;;;;;;;3.60;0.60;;;;;;;19.59;79.59;99405.11;109923;1274;22315;-82
2023/07/02 09:52:27;;;;;;;2.40;0.70;;;;;;;19.62;79.98;99404.14;109767;1271;22365;-82
2023/07/02 09:54:58;;;;;;;3.00;1.10;;;;;;;19.68;80.11;99407.74;109890;1276;23127;-82
2023/07/02 09:57:31;;;;;;;2.40;0.70;;;;;;;19.74;80.00;99418.75;108549;1275;24243;-83
2023/07/02 10:00:05;;;;;;;5.20;1.10;;;;;;;19.77;80.15;99421.48;108236;1281;22583;-83
2023/07/02 10:02:36;;;;;;;2.20;0.70;;;;;;;19.81;80.08;99417.52;108182;1275;22570;-83
2023/07/02 10:05:07;;;;;;;5.90;0.80;;;;;;;19.88;79.96;99412.17;108185;1281;22572;-83
2023/07/02 10:07:38;;;;;;;3.80;0.80;;;;;;;19.96;79.36;99412.33;108192;1268;22459;-84
2023/07/02 10:10:10;;;;;;;3.40;0.90;;;;;;;19.97;79.00;99416.61;108111;1274;22652;-83
2023/07/02 10:12:48;;;;;;;4.20;0.80;;;;;;;20.01;78.80;99413.90;108100;1275;22461;-84
2023/07/02 10:15:28;;;;;;;2.90;0.80;;;;;;;20.11;78.62;99408.58;108205;1281;24228;-83
2023/07/02 10:18:00;;;;;;;1.60;0.60;;;;;;;20.20;78.16;99410.11;107911;1281;24754;-84
2023/07/02 10:20:39;;;;;;;3.20;0.80;;;;;;;20.29;78.35;99409.23;108099;1275;22550;-84
2023/07/02 10:23:17;;;;;;;3.40;0.80;;;;;;;20.37;77.98;99409.36;108076;1275;25489;-83
2023/07/02 10:25:48;;;;;;;2.80;0.70;;;;;;;20.42;77.65;99411.53;108147;1274;24198;-83
2023/07/02 10:28:22;;;;;;;4.40;1.00;;;;;;;20.43;76.95;99409.64;107920;1281;23016;-84
2023/07/02 10:30:53;;;;;;;4.50;0.90;;;;;;;20.42;76.96;99406.96;108136;1275;22527;-84
2023/07/02 10:33:24;;;;;;;3.50;0.90;;;;;;;20.43;76.75;99407.79;108066;1276;22641;-80
2023/07/02 10:35:55;;;;;;;5.50;0.90;;;;;;;20.46;76.43;99407.20;108309;1281;23852;-80
2023/07/02 10:38:27;;;;;;;2.20;0.70;;;;;;;20.47;76.08;99405.64;108678;1278;22649;-82
2023/07/02 10:40:58;;;;;;;3.50;0.90;;;;;;;20.50;75.69;99409.45;108306;1281;22561;-83
2023/07/02 10:43:30;;;;;;;4.50;1.20;;;;;;;20.52;74.93;99406.30;108112;1281;22606;-83
2023/07/02 10:46:02;;;;;;;2.60;0.80;;;;;;;20.53;74.95;99411.67;108126;1281;22769;-83
2023/07/02 10:48:33;;;;;;;5.30;0.90;;;;;;;20.56;75.36;99410.17;108129;1278;22575;-81
2023/07/02 10:51:13;;;;;;;4.50;0.80;;;;;;;20.63;75.02;99412.92;108179;1275;22559;-80
2023/07/02 10:53:44;;;;;;;4.00;0.80;;;;;;;20.71;75.02;99416.20;107965;1280;23531;-80
2023/07/02 10:56:19;;;;;;;2.90;0.70;;;;;;;20.83;74.31;99415.51;107917;1275;26617;-80
2023/07/02 10:58:51;;;;;;;4.50;0.70;;;;;;;20.95;74.00;99416.73;108235;1268;24282;-80
2023/07/02 11:01:28;;;;;;;3.00;0.80;;;;;;;21.05;73.44;99412.08;109950;1276;22560;-80
2023/07/02 11:04:00;;;;;;;3.30;0.70;;;;;;;21.14;72.73;99412.92;109940;1281;22333;-80
2023/07/02 11:06:33;;;;;;;2.70;0.70;;;;;;;21.16;71.79;99404.89;109867;1270;22358;-80
2023/07/02 11:09:03;;;;;;;2.00;0.60;;;;;;;21.17;71.68;99400.21;109913;1275;22218;-80
2023/07/02 11:11:34;;;;;;;3.40;0.70;;;;;;;21.24;71.81;99397.80;109904;1275;22206;-80
2023/07/02 11:14:05;;;;;;;2.20;0.60;;;;;;;21.34;71.58;99393.93;109826;1280;23345;-80
2023/07/02 11:16:36;;;;;;;2.80;0.70;;;;;;;21.44;70.55;99388.54;109934;1271;22254;-80
2023/07/02 11:19:11;;;;;;;2.60;0.60;;;;;;;21.51;70.29;99385.67;109917;1275;22851;-80
2023/07/02 11:21:53;;;;;;;2.60;0.90;;;;;;;21.55;69.53;99387.40;109914;1276;22234;-82
2023/07/02 11:24:34;;;;;;;4.10;0.70;;;;;;;21.58;69.00;99388.67;108882;1274;22533;-82
2023/07/02 11:27:06;;;;;;;3.50;0.60;;;;;;;21.64;69.72;99388.75;108036;1281;22571;-82
2023/07/02 11:29:38;;;;;;;3.60;0.60;;;;;;;21.73;68.45;99395.67;108182;1276;25908;-86
2023/07/02 11:32:11;;;;;;;2.70;0.60;;;;;;;21.72;67.54;99388.89;108252;1281;22574;-84
2023/07/02 11:34:42;;;;;;;2.80;0.60;;;;;;;21.73;67.18;99392.00;108199;1275;22692;-84
2023/07/02 11:37:13;;;;;;;2.60;0.80;;;;;;;21.79;67.26;99387.61;108210;1278;25217;-84
2023/07/02 11:39:45;;;;;;;2.30;0.60;;;;;;;21.85;66.51;99387.07;108117;1275;23181;-84
2023/07/02 11:42:16;;;;;;;2.20;0.60;;;;;;;21.89;66.45;99382.75;108318;1275;25390;-83
2023/07/02 11:44:47;;;;;;;3.40;0.60;;;;;;;21.99;66.36;99386.71;108184;1275;22514;-87